createdAt,value
2019-05-22T00:00:26.054Z,13.53
2019-05-22T00:02:59.819Z,13.27
2019-05-22T00:05:33.575Z,13.07
2019-05-22T00:08:07.291Z,13.00
2019-05-22T00:10:41.029Z,13.25
2019-05-22T00:13:14.877Z,12.99
2019-05-22T00:15:48.587Z,12.99
2019-05-22T00:18:22.292Z,12.98
2019-05-22T00:20:56.011Z,13.05
2019-05-22T00:23:29.719Z,13.05
2019-05-22T00:26:03.436Z,12.98
2019-05-22T00:28:37.187Z,12.98
2019-05-22T00:31:11.271Z,12.99
2019-05-22T00:33:45.064Z,12.92
2019-05-22T00:36:18.958Z,12.92
2019-05-22T00:38:53.152Z,12.82
2019-05-22T00:41:27.320Z,12.88
2019-05-22T00:44:01.040Z,13.15
2019-05-22T00:46:34.735Z,13.15
2019-05-22T00:49:08.834Z,13.50
2019-05-22T00:51:42.906Z,13.12
2019-05-22T00:54:16.611Z,13.12
2019-05-22T00:56:50.327Z,13.38
2019-05-22T00:59:25.023Z,13.14
2019-05-22T01:01:58.948Z,13.14
2019-05-22T01:04:33.105Z,13.20
2019-05-22T01:07:06.886Z,13.42
2019-05-22T01:09:40.602Z,13.68
2019-05-22T01:12:18.825Z,13.36
2019-05-22T01:14:52.608Z,13.30
2019-05-22T01:17:27.176Z,13.30
2019-05-22T01:20:01.414Z,13.16
2019-05-22T01:22:36.700Z,13.06
2019-05-22T01:25:11.283Z,13.20
2019-05-22T01:27:45.069Z,13.26
2019-05-22T01:30:18.782Z,13.38
2019-05-22T01:32:52.503Z,13.66
2019-05-22T01:35:28.355Z,13.66
2019-05-22T01:38:02.087Z,13.61
2019-05-22T01:40:43.747Z,13.34
2019-05-22T01:43:17.456Z,13.34
2019-05-22T01:45:51.176Z,13.17
2019-05-22T01:48:33.796Z,13.07
2019-05-22T01:51:07.789Z,12.94
2019-05-22T01:53:41.515Z,12.94
2019-05-22T01:56:15.237Z,13.03
2019-05-22T01:58:48.949Z,12.93
2019-05-22T02:01:22.829Z,12.83
2019-05-22T02:03:56.527Z,12.84
2019-05-22T02:06:30.252Z,12.82
2019-05-22T02:09:19.242Z,12.69
2019-05-22T02:11:56.297Z,12.65
2019-05-22T02:14:30.024Z,12.56
2019-05-22T02:17:03.777Z,12.68
2019-05-22T02:19:37.487Z,12.74
2019-05-22T02:22:11.509Z,12.70
2019-05-22T02:24:46.069Z,12.70
2019-05-22T02:27:19.793Z,12.62
2019-05-22T02:29:53.498Z,12.62
2019-05-22T02:32:27.238Z,12.78
2019-05-22T02:35:00.940Z,12.68
2019-05-22T02:37:34.747Z,12.68
2019-05-22T02:40:14.508Z,12.68
2019-05-22T02:42:48.237Z,12.68
2019-05-22T02:45:21.970Z,12.55
2019-05-22T02:47:55.684Z,12.73
2019-05-22T02:50:29.418Z,12.66
2019-05-22T02:53:03.293Z,12.52
2019-05-22T02:55:37.670Z,12.52
2019-05-22T02:58:11.378Z,12.60
2019-05-22T03:00:56.019Z,12.35
2019-05-22T03:03:30.705Z,12.35
2019-05-22T03:06:10.791Z,12.54
2019-05-22T03:08:56.490Z,12.53
2019-05-22T03:11:36.111Z,12.58
2019-05-22T03:14:09.918Z,12.62
2019-05-22T03:16:49.071Z,12.62
2019-05-22T03:19:41.275Z,12.40
2019-05-22T03:22:29.588Z,12.54
2019-05-22T03:25:03.424Z,13.06
2019-05-22T03:27:38.377Z,12.93
2019-05-22T03:30:24.755Z,12.93
2019-05-22T03:32:59.728Z,12.94
2019-05-22T03:35:41.480Z,12.78
2019-05-22T03:38:16.125Z,12.61
2019-05-22T03:40:50.853Z,12.60
2019-05-22T03:43:24.783Z,12.57
2019-05-22T03:45:58.570Z,12.59
2019-05-22T03:48:33.919Z,12.62
2019-05-22T03:51:11.381Z,12.38
2019-05-22T03:53:45.481Z,12.26
2019-05-22T03:56:19.202Z,12.32
2019-05-22T03:58:52.987Z,12.54
2019-05-22T04:01:27.564Z,12.62
2019-05-22T04:04:02.435Z,12.62
2019-05-22T04:06:36.582Z,12.38
2019-05-22T04:09:17.857Z,12.35
2019-05-22T04:11:51.553Z,12.44
2019-05-22T04:14:32.923Z,12.44
2019-05-22T04:17:06.921Z,12.16
2019-05-22T04:19:49.574Z,12.16
2019-05-22T04:22:16.234Z,12.18
2019-05-22T04:24:49.943Z,12.18
2019-05-22T04:27:23.633Z,12.08
2019-05-22T04:29:57.359Z,12.18
2019-05-22T04:32:31.095Z,12.18
2019-05-22T04:35:06.732Z,12.06
2019-05-22T04:37:41.381Z,12.06
2019-05-22T04:40:24.398Z,12.01
2019-05-22T04:42:58.109Z,12.00
2019-05-22T04:45:31.820Z,12.00
2019-05-22T04:48:05.535Z,11.80
2019-05-22T04:50:39.317Z,11.81
2019-05-22T04:53:13.682Z,11.81
2019-05-22T04:55:47.580Z,12.21
2019-05-22T04:58:21.285Z,12.12
2019-05-22T05:00:55.077Z,12.13
2019-05-22T05:03:28.787Z,11.96
2019-05-22T05:06:05.988Z,12.38
2019-05-22T05:08:37.982Z,12.38
2019-05-22T05:11:11.700Z,11.95
2019-05-22T05:13:45.431Z,12.19
2019-05-22T05:16:19.132Z,12.19
2019-05-22T05:18:52.841Z,12.18
2019-05-22T05:21:26.590Z,12.43
2019-05-22T05:24:00.285Z,12.19
2019-05-22T05:26:34.004Z,12.19
2019-05-22T05:29:10.427Z,12.10
2019-05-22T05:31:44.133Z,12.13
2019-05-22T05:34:32.669Z,12.04
2019-05-22T05:37:06.385Z,12.02
2019-05-22T05:39:52.342Z,11.92
2019-05-22T05:42:26.047Z,12.06
2019-05-22T05:44:59.934Z,12.54
2019-05-22T05:47:33.836Z,12.54
2019-05-22T05:50:08.482Z,12.45
2019-05-22T05:52:42.201Z,12.70
2019-05-22T05:55:16.939Z,12.89
2019-05-22T05:57:54.583Z,12.88
2019-05-22T06:00:28.326Z,12.88
2019-05-22T06:03:11.059Z,12.78
2019-05-22T06:05:44.788Z,12.55
2019-05-22T06:08:18.498Z,12.55
2019-05-22T06:11:02.380Z,12.48
2019-05-22T06:13:36.132Z,12.75
2019-05-22T06:16:13.121Z,12.75
2019-05-22T06:18:46.893Z,12.38
2019-05-22T06:21:20.613Z,12.31
2019-05-22T06:24:20.307Z,12.25
2019-05-22T06:26:56.450Z,12.79
2019-05-22T06:29:53.643Z,12.87
2019-05-22T06:33:05.820Z,12.63
2019-05-22T06:35:39.558Z,12.91
2019-05-22T06:38:36.187Z,12.91
2019-05-22T06:41:09.904Z,12.69
2019-05-22T06:43:46.904Z,12.93
2019-05-22T06:46:42.381Z,12.93
2019-05-22T06:49:31.176Z,12.78
2019-05-22T06:52:05.565Z,12.78
2019-05-22T06:54:39.282Z,12.70
2019-05-22T06:57:13.214Z,12.54
2019-05-22T06:59:46.995Z,13.00
2019-05-22T07:02:20.725Z,13.00
2019-05-22T07:04:54.457Z,13.32
2019-05-22T07:07:28.148Z,12.56
2019-05-22T07:10:01.919Z,12.56
2019-05-22T07:12:35.666Z,12.41
2019-05-22T07:15:20.272Z,12.61
2019-05-22T07:17:53.990Z,12.81
2019-05-22T07:20:28.245Z,12.88
2019-05-22T07:23:05.522Z,12.88
2019-05-22T07:25:39.241Z,12.94
2019-05-22T07:28:14.054Z,12.94
2019-05-22T07:30:47.788Z,12.91
2019-05-22T07:33:21.499Z,12.78
2019-05-22T07:38:39.279Z,13.36
2019-05-22T07:41:14.135Z,13.62
2019-05-22T07:43:49.021Z,13.52
2019-05-22T07:46:22.819Z,13.18
2019-05-22T07:48:56.553Z,12.94
2019-05-22T07:51:30.255Z,13.20
2019-05-22T07:54:04.549Z,13.18
2019-05-22T07:56:38.431Z,13.62
2019-05-22T07:59:13.099Z,13.62
2019-05-22T08:01:46.826Z,13.37
2019-05-22T08:04:20.537Z,13.37
2019-05-22T08:06:54.258Z,13.36
2019-05-22T08:09:28.010Z,13.36
2019-05-22T08:12:01.703Z,13.49
2019-05-22T08:14:35.417Z,13.49
2019-05-22T08:17:09.229Z,13.67
2019-05-22T08:19:42.969Z,13.74
2019-05-22T08:22:36.949Z,13.61
2019-05-22T08:25:10.658Z,13.61
2019-05-22T08:27:44.425Z,13.64
2019-05-22T08:30:18.149Z,13.52
2019-05-22T08:32:52.125Z,13.72
2019-05-22T08:35:25.850Z,13.74
2019-05-22T08:37:59.609Z,13.84
2019-05-22T08:40:33.330Z,13.79
2019-05-22T08:43:07.025Z,13.63
2019-05-22T08:45:40.853Z,13.63
2019-05-22T08:48:15.022Z,14.23
2019-05-22T08:50:49.339Z,14.76
2019-05-22T08:53:23.129Z,14.76
2019-05-22T08:55:57.847Z,14.37
2019-05-22T08:58:31.544Z,14.04
2019-05-22T09:01:05.354Z,13.99
2019-05-22T09:03:39.046Z,13.72
2019-05-22T09:06:13.509Z,13.72
2019-05-22T09:08:47.235Z,13.64
2019-05-22T09:11:20.965Z,13.78
2019-05-22T09:13:54.689Z,13.60
2019-05-22T09:16:28.412Z,13.35
2019-05-22T09:19:02.221Z,13.43
2019-05-22T09:21:35.937Z,13.33
2019-05-22T09:24:12.580Z,13.33
2019-05-22T09:26:46.586Z,13.36
2019-05-22T09:29:20.290Z,13.33
2019-05-22T09:31:54.004Z,13.55
2019-05-22T09:34:27.747Z,13.75
2019-05-22T09:37:01.457Z,13.84
2019-05-22T09:39:35.147Z,13.89
2019-05-22T09:42:08.860Z,13.89
2019-05-22T09:44:42.592Z,13.84
2019-05-22T09:47:16.545Z,13.83
2019-05-22T09:49:50.352Z,13.64
2019-05-22T09:52:24.096Z,13.64
2019-05-22T09:54:57.847Z,13.61
2019-05-22T09:57:31.689Z,13.79
2019-05-22T10:00:08.774Z,13.79
2019-05-22T10:02:42.844Z,13.96
2019-05-22T10:05:16.684Z,13.96
2019-05-22T10:08:00.285Z,14.27
2019-05-22T10:10:25.833Z,13.98
2019-05-22T10:12:59.640Z,14.08
2019-05-22T10:15:33.351Z,14.16
2019-05-22T10:18:07.060Z,14.16
2019-05-22T10:20:40.840Z,14.45
2019-05-22T10:23:16.100Z,14.45
2019-05-22T10:25:49.961Z,14.46
2019-05-22T10:28:23.662Z,14.36
2019-05-22T10:30:58.322Z,14.36
2019-05-22T10:33:32.505Z,14.26
2019-05-22T10:36:07.002Z,14.31
2019-05-22T10:38:41.018Z,14.51
2019-05-22T10:41:14.807Z,14.31
2019-05-22T10:43:48.612Z,14.58
2019-05-22T10:46:22.304Z,14.69
2019-05-22T10:48:56.018Z,14.86
2019-05-22T10:51:30.013Z,14.86
2019-05-22T10:54:03.909Z,14.84
2019-05-22T10:56:37.623Z,14.84
2019-05-22T10:59:11.340Z,14.84
2019-05-22T11:01:45.059Z,14.95
2019-05-22T11:04:19.637Z,14.93
2019-05-22T11:06:54.615Z,15.38
2019-05-22T11:09:28.330Z,15.52
2019-05-22T11:12:02.300Z,15.20
2019-05-22T11:14:36.018Z,15.66
2019-05-22T11:17:09.709Z,16.00
2019-05-22T11:19:44.017Z,16.03
2019-05-22T11:22:17.883Z,16.28
2019-05-22T11:24:51.661Z,16.50
2019-05-22T11:27:25.400Z,16.50
2019-05-22T11:29:59.193Z,16.50
2019-05-22T11:32:34.764Z,16.80
2019-05-22T11:35:13.548Z,16.80
2019-05-22T11:37:47.247Z,16.97
2019-05-22T11:40:20.956Z,16.94
2019-05-22T11:42:54.732Z,16.63
2019-05-22T11:45:28.502Z,16.72
2019-05-22T11:48:02.214Z,16.72
2019-05-22T11:50:35.921Z,16.56
2019-05-22T11:53:09.642Z,16.60
2019-05-22T11:55:45.951Z,17.01
2019-05-22T11:58:18.867Z,17.13
2019-05-22T12:00:52.568Z,17.14
2019-05-22T12:03:26.290Z,17.24
2019-05-22T12:06:00.143Z,17.24
2019-05-22T12:08:33.842Z,17.46
2019-05-22T12:11:07.931Z,17.31
2019-05-22T12:13:41.659Z,17.31
2019-05-22T12:16:15.657Z,17.83
2019-05-22T12:18:49.350Z,17.83
2019-05-22T12:21:23.067Z,17.82
2019-05-22T12:23:56.791Z,17.86
2019-05-22T12:26:30.514Z,17.86
2019-05-22T12:29:04.221Z,18.59
2019-05-22T12:31:37.948Z,18.59
2019-05-22T12:34:11.660Z,18.35
2019-05-22T12:36:45.370Z,18.84
2019-05-22T12:39:19.318Z,18.67
2019-05-22T12:41:53.256Z,18.67
2019-05-22T12:44:26.966Z,18.61
2019-05-22T12:47:00.677Z,18.28
2019-05-22T12:49:34.396Z,18.54
2019-05-22T12:52:08.101Z,18.26
2019-05-22T12:54:47.344Z,17.97
2019-05-22T12:57:17.297Z,17.97
2019-05-22T12:59:51.852Z,18.38
2019-05-22T13:02:25.569Z,18.74
2019-05-22T13:04:59.296Z,18.46
2019-05-22T13:07:33.007Z,18.65
2019-05-22T13:10:06.709Z,18.36
2019-05-22T13:12:40.429Z,18.50
2019-05-22T13:15:14.195Z,18.50
2019-05-22T13:17:47.910Z,18.84
2019-05-22T13:20:40.488Z,18.80
2019-05-22T13:22:58.177Z,18.80
2019-05-22T13:25:33.025Z,18.63
2019-05-22T13:28:07.275Z,18.59
2019-05-22T13:30:40.978Z,18.60
2019-05-22T13:33:14.842Z,18.60
2019-05-22T13:35:48.907Z,18.89
2019-05-22T13:38:22.612Z,19.04
2019-05-22T13:40:56.360Z,19.30
2019-05-22T13:43:30.420Z,19.08
2019-05-22T13:46:04.276Z,19.08
2019-05-22T13:48:37.965Z,19.31
2019-05-22T13:51:11.691Z,19.32
2019-05-22T13:53:45.589Z,19.82
2019-05-22T13:56:19.277Z,20.31
2019-05-22T13:58:52.985Z,20.47
2019-05-22T14:01:27.065Z,20.47
2019-05-22T14:04:00.783Z,20.76
2019-05-22T14:06:34.809Z,20.76
2019-05-22T14:09:11.917Z,20.70
2019-05-22T14:11:45.688Z,20.61
2019-05-22T14:14:19.424Z,20.71
2019-05-22T14:16:53.133Z,21.12
2019-05-22T14:19:26.944Z,21.12
2019-05-22T14:22:00.623Z,21.49
2019-05-22T14:24:34.346Z,21.49
2019-05-22T14:27:08.010Z,22.20
2019-05-22T14:29:41.717Z,22.62
2019-05-22T14:32:15.444Z,23.29
2019-05-22T14:34:49.150Z,22.66
2019-05-22T14:37:22.833Z,21.89
2019-05-22T14:39:56.522Z,21.89
2019-05-22T14:42:30.414Z,20.87
2019-05-22T14:45:05.367Z,20.87
2019-05-22T14:47:39.039Z,21.45
2019-05-22T14:50:13.847Z,21.45
2019-05-22T14:52:47.552Z,21.41
2019-05-22T14:55:21.323Z,20.97
2019-05-22T14:57:55.899Z,20.60
2019-05-22T15:00:29.593Z,20.67
2019-05-22T15:03:03.505Z,21.29
2019-05-22T15:05:37.310Z,20.89
2019-05-22T15:08:11.006Z,20.85
2019-05-22T15:10:45.041Z,20.85
2019-05-22T15:13:18.756Z,21.30
2019-05-22T15:15:52.464Z,21.17
2019-05-22T15:18:26.264Z,20.80
2019-05-22T15:21:00.027Z,20.80
2019-05-22T15:23:33.746Z,20.71
2019-05-22T15:26:07.459Z,19.93
2019-05-22T15:28:41.168Z,19.97
2019-05-22T15:31:14.860Z,19.97
2019-05-22T15:33:48.619Z,20.60
2019-05-22T15:36:22.323Z,20.60
2019-05-22T15:38:56.059Z,21.32
2019-05-22T15:41:30.021Z,21.32
2019-05-22T15:44:03.704Z,20.89
2019-05-22T15:46:37.406Z,20.89
2019-05-22T15:49:11.145Z,20.84
2019-05-22T15:51:44.844Z,21.14
2019-05-22T15:54:18.554Z,21.74
2019-05-22T15:56:52.434Z,21.74
2019-05-22T15:59:26.151Z,21.80
2019-05-22T16:01:59.865Z,20.66
2019-05-22T16:04:33.573Z,20.40
2019-05-22T16:07:07.468Z,20.13
2019-05-22T16:09:41.171Z,20.03
2019-05-22T16:12:15.454Z,20.64
2019-05-22T16:14:49.160Z,20.64
2019-05-22T16:17:22.886Z,20.88
2019-05-22T16:19:56.572Z,21.29
2019-05-22T16:22:30.308Z,21.17
2019-05-22T16:25:05.613Z,21.14
2019-05-22T16:27:39.797Z,20.80
2019-05-22T16:30:13.490Z,20.80
2019-05-22T16:32:47.380Z,21.17
2019-05-22T16:35:21.158Z,21.78
2019-05-22T16:37:55.126Z,22.05
2019-05-22T16:40:28.831Z,22.09
2019-05-22T16:43:02.546Z,22.09
2019-05-22T16:45:36.251Z,21.99
2019-05-22T16:48:09.969Z,21.48
2019-05-22T16:50:43.680Z,20.77
2019-05-22T16:53:17.406Z,20.75
2019-05-22T16:55:51.197Z,21.23
2019-05-22T16:58:25.079Z,21.19
2019-05-22T17:00:58.823Z,21.19
2019-05-22T17:03:32.911Z,20.94
2019-05-22T17:06:06.615Z,20.94
2019-05-22T17:08:40.337Z,20.77
2019-05-22T17:11:14.093Z,20.83
2019-05-22T17:13:47.940Z,20.63
2019-05-22T17:16:21.616Z,20.63
2019-05-22T17:18:55.345Z,20.12
2019-05-22T17:21:29.067Z,20.10
2019-05-22T17:24:03.096Z,20.21
2019-05-22T17:26:36.999Z,20.55
2019-05-22T17:29:10.689Z,20.55
2019-05-22T17:31:44.425Z,20.35
2019-05-22T17:34:18.151Z,20.35
2019-05-22T17:36:51.828Z,20.19
2019-05-22T17:39:25.568Z,20.42
2019-05-22T17:41:59.294Z,20.42
2019-05-22T17:44:34.015Z,20.42
2019-05-22T17:47:08.953Z,19.30
2019-05-22T17:49:42.699Z,19.30
2019-05-22T17:52:17.437Z,19.45
2019-05-22T17:54:51.172Z,19.56
2019-05-22T17:57:24.853Z,19.57
2019-05-22T17:59:58.585Z,19.38
2019-05-22T18:02:32.310Z,19.12
2019-05-22T18:05:16.469Z,19.02
2019-05-22T18:07:50.212Z,19.02
2019-05-22T18:10:23.969Z,19.12
2019-05-22T18:12:57.744Z,19.12
2019-05-22T18:15:31.741Z,19.45
2019-05-22T18:18:05.529Z,19.02
2019-05-22T18:20:43.439Z,19.02
2019-05-22T18:23:14.671Z,19.27
2019-05-22T18:25:48.396Z,19.23
2019-05-22T18:28:22.145Z,19.03
2019-05-22T18:30:55.933Z,19.31
2019-05-22T18:33:29.676Z,18.90
2019-05-22T18:36:03.431Z,18.90
2019-05-22T18:38:37.356Z,18.71
2019-05-22T18:41:14.724Z,19.03
2019-05-22T18:43:48.484Z,19.03
2019-05-22T18:46:22.261Z,19.12
2019-05-22T18:48:56.008Z,19.01
2019-05-22T18:51:29.906Z,19.32
2019-05-22T18:54:03.639Z,19.15
2019-05-22T18:56:37.368Z,18.64
2019-05-22T18:59:11.142Z,18.64
2019-05-22T19:01:44.901Z,18.35
2019-05-22T19:04:18.656Z,18.86
2019-05-22T19:06:55.765Z,18.59
2019-05-22T19:09:28.281Z,18.59
2019-05-22T19:12:02.048Z,18.92
2019-05-22T19:14:35.769Z,18.48
2019-05-22T19:17:09.496Z,18.48
2019-05-22T19:19:43.214Z,18.42
2019-05-22T19:22:16.969Z,18.42
2019-05-22T19:24:50.686Z,18.58
2019-05-22T19:27:24.464Z,18.77
2019-05-22T19:29:58.191Z,18.63
2019-05-22T19:32:31.895Z,18.71
2019-05-22T19:35:07.375Z,18.71
2019-05-22T19:37:41.259Z,18.73
2019-05-22T19:40:15.105Z,18.63
2019-05-22T19:42:48.838Z,18.64
2019-05-22T19:45:22.591Z,18.57
2019-05-22T19:47:56.336Z,18.57
2019-05-22T19:50:30.074Z,18.26
2019-05-22T19:53:18.147Z,18.19
2019-05-22T19:55:39.315Z,17.79
2019-05-22T19:58:13.269Z,17.79
2019-05-22T20:00:47.014Z,17.43
2019-05-22T20:03:21.364Z,17.45
2019-05-22T20:05:57.919Z,17.40
2019-05-22T20:08:31.668Z,17.40
2019-05-22T20:11:05.411Z,16.92
2019-05-22T20:13:39.765Z,16.57
2019-05-22T20:16:13.467Z,16.55
2019-05-22T20:18:47.204Z,16.55
2019-05-22T20:21:20.927Z,16.28
2019-05-22T20:23:54.681Z,16.28
2019-05-22T20:26:28.424Z,16.42
2019-05-22T20:29:02.515Z,16.42
2019-05-22T20:31:36.315Z,16.76
2019-05-22T20:34:10.057Z,16.72
2019-05-22T20:36:43.778Z,16.76
2019-05-22T20:39:17.521Z,16.72
2019-05-22T20:41:51.235Z,16.87
2019-05-22T20:44:24.948Z,16.87
2019-05-22T20:46:58.649Z,17.02
2019-05-22T20:49:32.387Z,16.96
2019-05-22T20:52:06.159Z,16.96
2019-05-22T20:54:39.869Z,16.87
2019-05-22T20:57:13.602Z,16.83
2019-05-22T20:59:47.575Z,16.69
2019-05-22T21:02:21.317Z,16.69
2019-05-22T21:04:55.197Z,16.52
2019-05-22T21:07:31.724Z,16.41
2019-05-22T21:10:05.917Z,16.41
2019-05-22T21:12:39.650Z,16.13
2019-05-22T21:15:13.711Z,16.13
2019-05-22T21:17:47.709Z,15.99
2019-05-22T21:20:21.442Z,16.04
2019-05-22T21:22:55.332Z,16.08
2019-05-22T21:25:29.109Z,16.08
2019-05-22T21:28:02.796Z,15.94
2019-05-22T21:30:36.519Z,15.84
2019-05-22T21:33:10.217Z,15.75
2019-05-22T21:35:43.954Z,15.63
2019-05-22T21:38:17.658Z,15.70
2019-05-22T21:40:52.361Z,15.60
2019-05-22T21:43:26.398Z,15.50
2019-05-22T21:46:00.190Z,15.37
2019-05-22T21:48:33.937Z,15.25
2019-05-22T21:51:07.636Z,15.37
2019-05-22T21:53:41.357Z,15.37
2019-05-22T21:56:15.143Z,15.38
2019-05-22T21:58:48.843Z,15.29
2019-05-22T22:01:22.560Z,15.29
2019-05-22T22:03:57.120Z,15.25
2019-05-22T22:06:33.158Z,15.25
2019-05-22T22:09:06.288Z,15.03
2019-05-22T22:11:39.985Z,15.03
2019-05-22T22:14:14.259Z,14.96
2019-05-22T22:16:47.986Z,14.82
2019-05-22T22:19:21.668Z,13.99
2019-05-22T22:21:55.391Z,13.99
2019-05-22T22:24:29.094Z,14.45
2019-05-22T22:27:02.856Z,14.39
2019-05-22T22:29:36.571Z,14.46
2019-05-22T22:32:10.638Z,14.46
2019-05-22T22:34:45.513Z,14.58
2019-05-22T22:37:19.239Z,14.51
2019-05-22T22:39:53.335Z,14.51
2019-05-22T22:42:27.188Z,14.45
2019-05-22T22:45:00.915Z,14.48
2019-05-22T22:47:34.642Z,14.48
2019-05-22T22:50:08.346Z,14.41
2019-05-22T22:52:42.385Z,14.38
2019-05-22T22:55:16.152Z,14.34
2019-05-22T22:57:49.858Z,14.27
2019-05-22T23:00:23.591Z,14.27
2019-05-22T23:02:57.769Z,14.21
2019-05-22T23:05:32.229Z,14.16
2019-05-22T23:08:07.556Z,14.10
2019-05-22T23:10:41.234Z,14.12
2019-05-22T23:13:14.956Z,14.08
2019-05-22T23:15:48.744Z,14.08
2019-05-22T23:18:37.260Z,14.02
2019-05-22T23:21:09.990Z,13.94
2019-05-22T23:23:42.782Z,13.94
2019-05-22T23:26:16.496Z,13.91
2019-05-22T23:28:50.201Z,13.83
2019-05-22T23:31:23.942Z,13.83
2019-05-22T23:33:57.648Z,13.83
2019-05-22T23:36:31.381Z,13.80
2019-05-22T23:39:11.189Z,13.80
2019-05-22T23:41:44.967Z,13.70
2019-05-22T23:44:18.753Z,13.64
2019-05-22T23:46:52.451Z,13.57
2019-05-22T23:49:26.144Z,13.57
2019-05-22T23:52:00.031Z,13.52
2019-05-22T23:54:33.760Z,13.47
2019-05-22T23:57:07.728Z,13.47
2019-05-22T23:59:41.451Z,13.46
